• Join FlightAware (Why Join?)
  • Login
  • US Flag 
05:15AM EDT


 

Airport Tracker/Info


-or-


 

Live Flight TrackerFlight Track Log ✈ N449ND ✈ 18-Mar-2014 ✈ KPBI - KFPR

Flight Track Log - Related Links

Times and Time Zones

All times are in EDT time to prevent confusion due to time zone crossing. See the N449ND flight status page for this flight to view local times or setup timezone preferences in your user account.

Time Position Orientation Groundspeed Altitude Reporting Facility
EDT Latitude Longitude Course Direction KTS MPH feet Rate Location/Type
09:38PM 26.7439 -80.0533 North 82 94 2,000  Level Miami Center
09:39PM 26.7669 -80.0575 351° North 82 94 2,400 420 Climbing Miami Center
09:40PM 26.7928 -80.0606 354° North 85 98 2,900 300 Climbing Miami Center
09:41PM 26.8095 -80.1464 336° Northwest  Level FlightAware Approximate
09:41PM 26.8169 -80.0617 358° North 86 99 3,100  Level Miami Center
09:42PM 26.8335 -80.1562 342° North  Level FlightAware Approximate
09:42PM 26.8411 -80.0764 331° Northwest 93 107 3,100  Level Miami Center
09:43PM 26.8628 -80.0989 317° Northwest 100 115 3,100  Level Miami Center
09:44PM 26.8817 -80.1169 320° Northwest 95 109 3,100 180 Level Miami Center
09:45PM 26.9022 -80.1369 319° Northwest 96 110 3,500 360 Climbing Miami Center
09:46PM 26.9181 -80.1547 315° West 83 96 3,900 240 Climbing Miami Center
09:47PM 26.9375 -80.1728 320° Northwest 84 97 4,100 60 Climbing Miami Center
09:48PM 26.9600 -80.1950 319° Northwest 104 120 4,100  Level Miami Center
09:49PM 26.9831 -80.2086 332° Northwest 100 115 4,100 -60 Level Miami Center
09:50PM 27.0128 -80.2217 339° North 108 124 4,000 -60 Descending Miami Center
09:51PM 27.0403 -80.2311 343° North 99 114 4,000  Level Miami Center
09:52PM 27.0683 -80.2442 337° Northwest 111 128 4,000  Level Miami Center
09:53PM 27.0969 -80.2561 340° North 109 125 4,100  Climbing Miami Center
09:54PM 27.1264 -80.2681 340° North 109 125 4,000 -60 Descending Miami Center
09:55PM 27.1533 -80.2800 338° Northwest 108 124 4,000  Level Miami Center
09:56PM 27.1825 -80.2906 342° North 104 120 4,000  Level Miami Center
09:57PM 27.2089 -80.3017 339° North 105 121 4,000  Level Miami Center
09:58PM 27.2378 -80.3136 340° North 105 121 4,000  Level Miami Center
09:59PM 27.2650 -80.3233 342° North 105 121 4,000  Level Miami Center
10:00PM 27.2931 -80.3350 340° North 105 121 4,000  Level Miami Center
10:01PM 27.3211 -80.3472 339° North 105 121 4,100  Climbing Miami Center
10:02PM 27.3492 -80.3597 338° Northwest 104 120 4,000 -60 Descending Miami Center
10:03PM 27.3758 -80.3692 343° North 104 120 4,000  Level Miami Center
10:04PM 27.4044 -80.3792 343° North 105 121 4,000  Level Miami Center
10:05PM 27.4347 -80.3894 343° North 105 121 4,000  Level Miami Center
10:06PM 27.4600 -80.4008 338° Northwest 105 121 4,000  Level Miami Center
10:07PM 27.4897 -80.4108 343° North 105 121 4,000  Level Miami Center
10:08PM 27.5181 -80.4236 338° Northwest 105 121 4,000  Level Miami Center
10:09PM 27.5444 -80.4350 339° North 105 121 4,000  Level Miami Center
10:10PM 27.5689 -80.4508 330° Northwest 98 113 4,100  Climbing Miami Center
10:11PM 27.5597 -80.4825 252° West 101 116 4,000 -60 Descending Miami Center
10:12PM 27.5628 -80.5114 277° West 101 116 4,000  Level Miami Center
10:13PM 27.5706 -80.5411 286° West 98 113 4,000  Level Miami Center
10:14PM 27.5836 -80.5686 298° West 99 114 4,000 -240 Level Miami Center
10:15PM 27.6028 -80.5922 312° West 101 116 3,600 -480 Descending Miami Center
10:16PM 27.6269 -80.6097 327° Northwest 100 115 3,100 -300 Descending Miami Center
10:17PM 27.6528 -80.6203 340° North 102 117 3,000 -360 Descending Miami Center
10:18PM 27.6825 -80.6219 357° North 102 117 2,400 -540 Descending Miami Center
10:20PM 27.7108 -80.6167 North 101 116 2,000 -300 Descending Miami Center
10:21PM 27.7108 -80.5886 90° East 105 121 1,900 -300 Descending Miami Center
10:22PM 27.7025 -80.5569 107° East 103 119 1,500 -360 Descending Miami Center
10:23PM 27.6906 -80.5297 116° Southeast 92 106 1,200 -180 Descending Miami Center
10:24PM 27.6825 -80.5022 108° East 93 107 1,200 -180 Level Miami Center
10:25PM 27.6719 -80.4739 113° Southeast 94 108 900 -420 Descending Miami Center
10:26PM 27.6653 -80.4503 108° East 86 99 400 -240 Descending Miami Center
10:27PM 27.6561 -80.4228 111° Southeast 86 99 500 300 Climbing Miami Center
10:28PM 27.6572 -80.3978 87° East 87 100 1,100 480 Climbing Miami Center
10:29PM 27.6783 -80.4036 346° North 85 98 1,600 420 Climbing Miami Center
10:30PM 27.7017 -80.4097 347° North 83 96 2,000 180 Climbing Miami Center
10:31PM 27.7300 -80.4136 353° North 93 107 2,000 180 Level Miami Center
10:32PM 27.7478 -80.3922 47° Northeast 98 113 2,400 360 Climbing Miami Center
10:33PM 27.7389 -80.3736 118° Southeast 94 108 2,800 300 Climbing Miami Center
10:34PM 27.7203 -80.3917 221° Southwest 89 102 3,000 60 Climbing Miami Center
10:35PM 27.6975 -80.4131 220° Southwest 100 115 3,000  Level Miami Center
10:36PM 27.6733 -80.4375 222° Southwest 109 125 3,000  Level Miami Center
10:37PM 27.6506 -80.4575 218° Southwest 109 125 3,000  Level Miami Center
10:38PM 27.6261 -80.4825 222° Southwest 112 129 3,000  Level Miami Center
10:39PM 27.6047 -80.5044 222° Southwest 112 129 3,000 -120 Level Miami Center
10:40PM 27.5803 -80.5272 220° Southwest 111 128 2,800 -540 Descending Miami Center
10:41PM 27.5578 -80.5475 219° Southwest 110 127 2,000 -420 Descending Miami Center
10:42PM 27.5275 -80.5433 173° South 106 122 2,000  Level Miami Center
10:43PM 27.5097 -80.5158 126° Southeast 107 123 2,000 -60 Level Miami Center
10:44PM 27.4975 -80.4881 116° Southeast 105 121 1,900 -120 Descending Miami Center